createdAt,value
2022-10-26T00:02:05.801Z,100.00
2022-10-26T00:04:35.644Z,100.00
2022-10-26T00:07:02.434Z,100.00
2022-10-26T00:09:28.861Z,100.00
2022-10-26T00:11:56.981Z,100.00
2022-10-26T00:14:24.230Z,100.00
2022-10-26T00:16:50.998Z,100.00
2022-10-26T00:19:17.634Z,100.00
2022-10-26T00:21:44.623Z,100.00
2022-10-26T00:24:14.700Z,100.00
2022-10-26T00:26:41.415Z,100.00
2022-10-26T00:29:08.421Z,100.00
2022-10-26T00:31:35.176Z,100.00
2022-10-26T00:34:01.513Z,100.00
2022-10-26T00:36:28.298Z,100.00
2022-10-26T00:38:55.425Z,100.00
2022-10-26T00:41:27.217Z,100.00
2022-10-26T00:43:54.431Z,100.00
2022-10-26T00:46:36.042Z,100.00
2022-10-26T00:49:10.648Z,100.00
2022-10-26T00:51:42.912Z,100.00
2022-10-26T00:54:13.651Z,100.00
2022-10-26T00:56:41.242Z,100.00
2022-10-26T00:59:11.265Z,100.00
2022-10-26T01:01:40.980Z,100.00
2022-10-26T01:04:07.413Z,100.00
2022-10-26T01:06:36.652Z,100.00
2022-10-26T01:09:03.877Z,100.00
2022-10-26T01:11:30.579Z,100.00
2022-10-26T01:14:02.725Z,100.00
2022-10-26T01:19:47.798Z,100.00
2022-10-26T01:22:40.450Z,100.00
2022-10-26T01:25:28.759Z,100.00
2022-10-26T01:27:56.256Z,100.00
2022-10-26T01:30:41.379Z,100.00
2022-10-26T01:33:29.690Z,100.00
2022-10-26T01:36:14.292Z,100.00
2022-10-26T01:39:09.735Z,100.00
2022-10-26T01:41:44.091Z,100.00
2022-10-26T01:44:18.980Z,100.00
2022-10-26T01:46:51.444Z,100.00
2022-10-26T01:49:22.780Z,100.00
2022-10-26T01:51:49.735Z,98.71
2022-10-26T01:54:16.587Z,100.00
2022-10-26T01:56:48.086Z,100.00
2022-10-26T01:59:26.928Z,100.00
2022-10-26T02:02:26.824Z,100.00
2022-10-26T02:05:19.951Z,100.00
2022-10-26T02:08:12.487Z,100.00
2022-10-26T02:10:47.882Z,100.00
2022-10-26T02:14:00.916Z,99.74
2022-10-26T02:16:58.165Z,100.00
2022-10-26T02:19:36.427Z,100.00
2022-10-26T02:22:21.637Z,100.00
2022-10-26T02:24:51.314Z,100.00
2022-10-26T02:27:23.927Z,100.00
2022-10-26T02:29:54.412Z,100.00
2022-10-26T02:32:23.571Z,100.00
2022-10-26T02:34:52.507Z,100.00
2022-10-26T02:37:21.720Z,100.00
2022-10-26T02:39:51.666Z,100.00
2022-10-26T02:42:19.439Z,99.92
2022-10-26T02:44:54.395Z,100.00
2022-10-26T02:47:21.401Z,100.00
2022-10-26T02:49:47.980Z,100.00
2022-10-26T02:52:39.558Z,100.00
2022-10-26T02:55:14.816Z,100.00
2022-10-26T02:57:45.009Z,100.00
2022-10-26T03:00:15.148Z,100.00
2022-10-26T03:02:47.572Z,100.00
2022-10-26T03:05:20.432Z,100.00
2022-10-26T03:07:46.857Z,100.00
2022-10-26T03:10:13.283Z,100.00
2022-10-26T03:12:39.673Z,100.00
2022-10-26T03:15:06.567Z,100.00
2022-10-26T03:17:33.003Z,100.00
2022-10-26T03:19:59.536Z,100.00
2022-10-26T03:22:26.015Z,100.00
2022-10-26T03:24:52.468Z,100.00
2022-10-26T03:27:18.918Z,100.00
2022-10-26T03:29:45.437Z,100.00
2022-10-26T03:32:11.995Z,100.00
2022-10-26T03:34:38.483Z,100.00
2022-10-26T03:37:05.112Z,100.00
2022-10-26T03:39:31.629Z,99.49
2022-10-26T03:41:58.219Z,99.34
2022-10-26T03:44:24.630Z,100.00
2022-10-26T03:46:51.104Z,100.00
2022-10-26T03:49:17.561Z,98.56
2022-10-26T03:51:43.954Z,99.87
2022-10-26T03:54:10.360Z,100.00
2022-10-26T03:56:36.797Z,100.00
2022-10-26T03:59:03.242Z,100.00
2022-10-26T04:01:29.720Z,100.00
2022-10-26T04:03:56.233Z,100.00
2022-10-26T04:06:22.744Z,100.00
2022-10-26T04:08:49.211Z,100.00
2022-10-26T04:11:15.668Z,100.00
2022-10-26T04:13:42.093Z,100.00
2022-10-26T04:16:08.593Z,100.00
2022-10-26T04:18:38.195Z,100.00
2022-10-26T04:21:07.300Z,100.00
2022-10-26T04:23:34.060Z,99.03
2022-10-26T04:26:00.499Z,98.92
2022-10-26T04:28:26.912Z,100.00
2022-10-26T04:30:53.317Z,100.00
2022-10-26T04:33:19.749Z,100.00
2022-10-26T04:35:46.393Z,100.00
2022-10-26T04:38:12.734Z,100.00
2022-10-26T04:40:39.163Z,100.00
2022-10-26T04:43:05.670Z,100.00
2022-10-26T04:45:32.243Z,100.00
2022-10-26T04:48:03.704Z,100.00
2022-10-26T04:50:30.458Z,100.00
2022-10-26T04:52:57.706Z,100.00
2022-10-26T04:55:24.225Z,100.00
2022-10-26T04:57:50.890Z,100.00
2022-10-26T05:00:18.110Z,100.00
2022-10-26T05:02:49.588Z,100.00
2022-10-26T06:49:11.323Z,100.00
2022-10-26T06:51:50.294Z,100.00
2022-10-26T06:54:37.028Z,100.00
2022-10-26T06:57:11.710Z,100.00
2022-10-26T06:59:47.688Z,100.00
2022-10-26T07:19:55.804Z,100.00
2022-10-26T07:23:01.228Z,100.00
2022-10-26T07:33:35.874Z,100.00
2022-10-26T07:36:11.058Z,100.00
2022-10-26T07:50:39.999Z,100.00
2022-10-26T07:53:13.261Z,100.00
2022-10-26T07:59:49.510Z,100.00
2022-10-26T08:53:36.314Z,100.00
2022-10-26T08:56:43.918Z,100.00
2022-10-26T08:59:29.382Z,100.00
2022-10-26T09:01:56.101Z,100.00
2022-10-26T09:04:25.867Z,100.00
2022-10-26T09:06:58.471Z,100.00
2022-10-26T09:09:54.734Z,100.00
2022-10-26T09:12:48.485Z,100.00
2022-10-26T09:15:45.703Z,100.00
2022-10-26T09:18:37.523Z,100.00
2022-10-26T09:21:36.467Z,100.00
2022-10-26T09:24:28.276Z,100.00
2022-10-26T09:26:59.370Z,100.00
2022-10-26T09:29:44.933Z,100.00
2022-10-26T10:15:46.099Z,91.63
2022-10-26T10:53:33.615Z,91.64
2022-10-26T11:15:07.639Z,86.53
2022-10-26T11:18:02.043Z,82.74
2022-10-26T11:20:31.392Z,81.63
2022-10-26T11:27:08.272Z,82.74
2022-10-26T11:29:51.333Z,82.87
2022-10-26T11:43:43.460Z,81.87
2022-10-26T11:46:25.860Z,82.17
2022-10-26T11:49:53.271Z,79.69
2022-10-26T11:57:29.810Z,77.76
2022-10-26T12:07:31.624Z,79.38
2022-10-26T12:10:00.584Z,79.76
2022-10-26T12:12:44.509Z,75.68
2022-10-26T12:16:04.551Z,75.25
2022-10-26T12:22:44.393Z,72.21
2022-10-26T12:25:15.110Z,74.02
2022-10-26T12:30:47.150Z,69.46
2022-10-26T12:34:03.327Z,76.29
2022-10-26T12:37:05.287Z,78.00
2022-10-26T12:39:50.139Z,70.46
2022-10-26T12:42:16.740Z,76.49
2022-10-26T12:45:39.892Z,79.04
2022-10-26T12:48:39.045Z,75.61
2022-10-26T12:51:27.482Z,75.75
2022-10-26T14:03:23.368Z,78.40
2022-10-26T14:12:51.792Z,78.50
2022-10-26T14:16:00.839Z,81.47
2022-10-26T14:19:01.492Z,80.92
2022-10-26T14:21:31.335Z,82.56
2022-10-26T14:40:20.270Z,84.62
2022-10-26T15:06:06.325Z,90.40
2022-10-26T15:49:47.511Z,94.65
2022-10-26T15:59:42.776Z,96.32
2022-10-26T16:02:19.675Z,96.40
2022-10-26T16:04:55.062Z,96.92
2022-10-26T16:08:43.014Z,96.80
2022-10-26T16:11:35.130Z,97.46
2022-10-26T16:14:21.860Z,97.26
2022-10-26T16:16:54.743Z,97.17
2022-10-26T16:38:14.666Z,100.00
2022-10-26T16:40:54.281Z,100.00
2022-10-26T16:43:26.765Z,100.00
2022-10-26T16:46:01.983Z,100.00
2022-10-26T17:01:18.799Z,100.00
2022-10-26T17:03:23.935Z,100.00
2022-10-26T17:06:08.719Z,100.00
2022-10-26T21:21:06.631Z,100.00
2022-10-26T21:23:35.756Z,100.00
2022-10-26T21:26:14.454Z,100.00
2022-10-26T21:28:45.905Z,100.00
2022-10-26T21:31:16.808Z,100.00
2022-10-26T21:33:45.658Z,100.00
2022-10-26T21:36:15.237Z,100.00
2022-10-26T21:38:44.065Z,100.00
2022-10-26T21:41:19.031Z,100.00
2022-10-26T21:43:49.055Z,100.00
2022-10-26T21:46:17.078Z,100.00
2022-10-26T21:48:43.854Z,100.00
2022-10-26T21:51:17.043Z,100.00
2022-10-26T21:53:43.738Z,100.00
2022-10-26T21:56:19.139Z,100.00
2022-10-26T21:58:46.387Z,100.00
2022-10-26T22:01:17.894Z,100.00
2022-10-26T22:03:49.356Z,100.00
2022-10-26T22:08:47.611Z,100.00
2022-10-26T22:11:25.016Z,100.00
2022-10-26T22:13:53.072Z,100.00
2022-10-26T22:16:25.705Z,100.00
2022-10-26T22:18:54.290Z,100.00
2022-10-26T22:21:22.374Z,100.00
2022-10-26T22:23:49.045Z,100.00
2022-10-26T22:26:20.530Z,100.00
2022-10-26T22:28:50.039Z,100.00
2022-10-26T22:31:19.300Z,100.00
2022-10-26T22:33:46.287Z,100.00
2022-10-26T22:36:13.966Z,100.00
2022-10-26T22:38:41.319Z,100.00
2022-10-26T22:41:08.659Z,100.00
2022-10-26T22:43:35.838Z,100.00
2022-10-26T22:46:07.628Z,100.00
2022-10-26T22:48:34.995Z,100.00
2022-10-26T22:51:09.640Z,100.00
2022-10-26T22:53:36.803Z,100.00
2022-10-26T22:56:05.736Z,100.00
2022-10-26T22:58:44.785Z,100.00
2022-10-26T23:01:19.921Z,100.00
2022-10-26T23:03:47.003Z,100.00
2022-10-26T23:06:16.891Z,100.00
2022-10-26T23:08:44.465Z,100.00
2022-10-26T23:11:14.367Z,100.00
2022-10-26T23:13:41.082Z,100.00
2022-10-26T23:16:10.473Z,100.00
2022-10-26T23:18:37.421Z,100.00
2022-10-26T23:21:08.773Z,100.00
2022-10-26T23:23:36.431Z,100.00
2022-10-26T23:26:08.938Z,100.00
2022-10-26T23:28:36.373Z,100.00
2022-10-26T23:31:03.201Z,100.00
2022-10-26T23:33:29.728Z,100.00
2022-10-26T23:35:57.428Z,100.00
2022-10-26T23:38:24.808Z,100.00
2022-10-26T23:40:57.956Z,100.00
2022-10-26T23:43:25.314Z,100.00
2022-10-26T23:45:52.111Z,100.00
2022-10-26T23:48:19.407Z,100.00
2022-10-26T23:50:48.437Z,100.00
2022-10-26T23:53:15.950Z,100.00
2022-10-26T23:55:46.896Z,100.00
2022-10-26T23:58:14.702Z,100.00
